Gerald Majors — WDF5077 — position and weather

sailwx.info

Track history (hours):
 
Tides and Currents Weather Stations Pressure Air Temp Water Temp Dewpoint Dewpoint Depression Visibility Wind Speed Wind Dir Waves Ship Positions

Gerald Majors

Owner: Pine Bluff Sand & Gravel Co., Pine Bluff, AR. More information available from US FCC via Universal Licensing System and Coast Guard Vessel Documentation Center.

Last reported at 2018-Jan-19 05:36 UTC. Time now 2018-Jan-21 07:14 UTC.
Position N 32°01' W 091°04'.

Length 56 m; draft 2.5 m.

Type: Towing. MMSI: 367459110.

Date/timePositionNaut miles runAvg speedWind from/ knotsBaromVisibWave heightAir tempDewpointWater temp
2018-Jan-19 05:36N 32°01' W 091°04'1 8.2
2018-Jan-19 05:30N 32°02' W 091°04'5 6.8
2018-Jan-19 04:48N 32°06' W 091°06'1 4.7
2018-Jan-19 04:30N 32°08' W 091°06'2 3.3
2018-Jan-19 03:54N 32°08' W 091°04'2 5.3
2018-Jan-19 03:29N 32°07' W 091°02'3 6.2
2018-Jan-19 03:01N 32°10' W 091°00'1 2.6
2018-Jan-19 02:30N 32°11' W 090°60'0 0.2
2018-Jan-19 02:01N 32°11' W 090°60'0 0.0
2018-Jan-19 01:29N 32°11' W 090°60'0 0.0
2018-Jan-19 01:00N 32°11' W 090°60'0 0.0
2018-Jan-19 00:30N 32°11' W 090°60'0 0.0
2018-Jan-19 00:01N 32°11' W 090°60'0 0.0
2018-Jan-18 23:31N 32°11' W 090°60'0 0.1
2018-Jan-18 23:01N 32°11' W 090°60'0 0.7
2018-Jan-18 22:30N 32°12' W 090°60'4 8.1
2018-Jan-18 22:00N 32°16' W 090°58'4 7.7
2018-Jan-18 21:31N 32°18' W 090°55'3 5.5
2018-Jan-18 21:01N 32°21' W 090°56'4 7.3
2018-Jan-18 20:31N 32°21' W 090°60'4 7.2
2018-Jan-18 20:00N 32°25' W 090°60'4 7.9
2018-Jan-18 19:30N 32°26' W 091°04'4 7.4
2018-Jan-18 19:01N 32°29' W 091°07'4 7.7
2018-Jan-18 18:31N 32°33' W 091°06'4 7.7
2018-Jan-18 18:01N 32°36' W 091°09'4 7.9
2018-Jan-18 17:30N 32°40' W 091°08'  
Track history (hours):
 
Tides and Currents Weather Stations Pressure Air Temp Water Temp Dewpoint Dewpoint Depression Visibility Wind Speed Wind Dir Waves Ship Positions

Gerald Majors

Owner: Pine Bluff Sand & Gravel Co., Pine Bluff, AR. More information available from US FCC via Universal Licensing System and Coast Guard Vessel Documentation Center.

Last reported at 2018-Jan-19 05:36 UTC. Time now 2018-Jan-21 07:14 UTC.
Position N 32°01' W 091°04'.

Length 56 m; draft 2.5 m.

Type: Towing. MMSI: 367459110.

Date/timePositionNaut miles runAvg speedWind from/ knotsBaromVisibWave heightAir tempDewpointWater temp
2018-Jan-19 05:36N 32°01' W 091°04'1 8.2
2018-Jan-19 05:30N 32°02' W 091°04'5 6.8
2018-Jan-19 04:48N 32°06' W 091°06'1 4.7
2018-Jan-19 04:30N 32°08' W 091°06'2 3.3
2018-Jan-19 03:54N 32°08' W 091°04'2 5.3
2018-Jan-19 03:29N 32°07' W 091°02'3 6.2
2018-Jan-19 03:01N 32°10' W 091°00'1 2.6
2018-Jan-19 02:30N 32°11' W 090°60'0 0.2
2018-Jan-19 02:01N 32°11' W 090°60'0 0.0
2018-Jan-19 01:29N 32°11' W 090°60'0 0.0
2018-Jan-19 01:00N 32°11' W 090°60'0 0.0
2018-Jan-19 00:30N 32°11' W 090°60'0 0.0
2018-Jan-19 00:01N 32°11' W 090°60'0 0.0
2018-Jan-18 23:31N 32°11' W 090°60'0 0.1
2018-Jan-18 23:01N 32°11' W 090°60'0 0.7
2018-Jan-18 22:30N 32°12' W 090°60'4 8.1
2018-Jan-18 22:00N 32°16' W 090°58'4 7.7
2018-Jan-18 21:31N 32°18' W 090°55'3 5.5
2018-Jan-18 21:01N 32°21' W 090°56'4 7.3
2018-Jan-18 20:31N 32°21' W 090°60'4 7.2
2018-Jan-18 20:00N 32°25' W 090°60'4 7.9
2018-Jan-18 19:30N 32°26' W 091°04'4 7.4
2018-Jan-18 19:01N 32°29' W 091°07'4 7.7
2018-Jan-18 18:31N 32°33' W 091°06'4 7.7
2018-Jan-18 18:01N 32°36' W 091°09'4 7.9
2018-Jan-18 17:30N 32°40' W 091°08'  

Dump ship's entire track history